createdAt,value
2023-04-28T00:01:02.252Z,1.00
2023-04-28T00:03:32.498Z,1.00
2023-04-28T00:06:06.239Z,1.00
2023-04-28T00:08:36.539Z,1.00
2023-04-28T00:11:06.558Z,1.00
2023-04-28T00:13:36.477Z,1.00
2023-04-28T00:16:06.570Z,1.00
2023-04-28T00:18:36.513Z,1.00
2023-04-28T00:21:09.085Z,1.00
2023-04-28T00:23:38.913Z,1.00
2023-04-28T00:26:08.927Z,1.00
2023-04-28T00:28:38.775Z,1.00
2023-04-28T00:31:14.274Z,1.00
2023-04-28T00:33:44.233Z,1.00
2023-04-28T00:36:16.633Z,1.00
2023-04-28T00:38:46.579Z,1.00
2023-04-28T00:41:16.409Z,1.00
2023-04-28T00:43:49.880Z,1.00
2023-04-28T00:46:25.148Z,1.00
2023-04-28T00:48:55.008Z,1.00
2023-04-28T00:51:27.788Z,1.00
2023-04-28T00:53:58.131Z,1.00
2023-04-28T00:56:28.488Z,1.00
2023-04-28T00:58:58.512Z,1.00
2023-04-28T01:01:28.596Z,1.00
2023-04-28T01:03:58.627Z,1.00
2023-04-28T01:06:32.464Z,1.00
2023-04-28T01:09:02.274Z,1.00
2023-04-28T01:11:32.132Z,1.00
2023-04-28T01:14:02.161Z,1.00
2023-04-28T01:16:32.838Z,1.00
2023-04-28T01:19:03.711Z,1.00
2023-04-28T01:21:37.030Z,1.00
2023-04-28T01:24:10.352Z,1.00
2023-04-28T01:26:40.218Z,1.00
2023-04-28T01:29:10.092Z,1.00
2023-04-28T01:31:40.207Z,1.00
2023-04-28T01:34:10.166Z,1.00
2023-04-28T01:36:40.061Z,1.00
2023-04-28T01:39:12.580Z,1.00
2023-04-28T01:41:42.444Z,1.00
2023-04-28T01:44:13.289Z,1.00
2023-04-28T01:46:43.317Z,1.00
2023-04-28T01:49:13.181Z,1.00
2023-04-28T01:51:43.200Z,1.00
2023-04-28T01:54:16.521Z,1.00
2023-04-28T01:56:46.545Z,1.00
2023-04-28T01:59:16.443Z,1.00
2023-04-28T02:01:46.542Z,1.00
2023-04-28T02:04:16.977Z,1.00
2023-04-28T02:06:47.128Z,1.00
2023-04-28T02:09:19.574Z,1.00
2023-04-28T02:11:49.468Z,1.00
2023-04-28T02:14:19.300Z,1.00
2023-04-28T02:16:49.155Z,1.00
2023-04-28T02:19:19.028Z,1.00
2023-04-28T02:21:48.878Z,1.00
2023-04-28T02:24:21.341Z,1.00
2023-04-28T02:26:51.207Z,1.00
2023-04-28T02:29:21.172Z,1.00
2023-04-28T02:31:51.041Z,1.00
2023-04-28T02:34:21.511Z,1.00
2023-04-28T02:36:51.345Z,1.00
2023-04-28T02:39:27.340Z,1.00
2023-04-28T02:41:57.847Z,1.00
2023-04-28T02:44:27.769Z,1.00
2023-04-28T02:46:57.805Z,1.00
2023-04-28T02:49:27.737Z,1.00
2023-04-28T02:51:57.608Z,1.00
2023-04-28T02:54:30.236Z,1.00
2023-04-28T02:57:01.469Z,1.00
2023-04-28T02:59:31.375Z,1.00
2023-04-28T03:02:01.514Z,1.00
2023-04-28T03:04:31.519Z,1.00
2023-04-28T03:07:01.680Z,1.00
2023-04-28T03:09:34.142Z,1.00
2023-04-28T03:12:04.079Z,1.00
2023-04-28T03:14:33.891Z,1.00
2023-04-28T03:17:03.762Z,1.00
2023-04-28T03:19:33.562Z,1.00
2023-04-28T03:22:03.406Z,1.00
2023-04-28T03:24:35.926Z,1.00
2023-04-28T03:27:06.646Z,1.00
2023-04-28T03:29:36.483Z,1.00
2023-04-28T03:32:06.902Z,1.00
2023-04-28T03:34:36.921Z,1.00
2023-04-28T03:37:06.836Z,1.00
2023-04-28T03:39:39.307Z,1.10
2023-04-28T03:42:09.222Z,3.10
2023-04-28T03:44:39.048Z,3.40
2023-04-28T03:47:09.444Z,6.30
2023-04-28T03:49:39.322Z,9.00
2023-04-28T03:52:09.187Z,13.10
2023-04-28T03:54:41.616Z,15.20
2023-04-28T03:57:11.473Z,12.70
2023-04-28T03:59:41.396Z,9.90
2023-04-28T04:02:11.283Z,8.90
2023-04-28T04:04:41.319Z,6.60
2023-04-28T04:07:11.533Z,1.30
2023-04-28T04:09:43.942Z,1.40
2023-04-28T04:12:13.820Z,1.70
2023-04-28T04:14:43.653Z,1.30
2023-04-28T04:17:13.544Z,1.30
2023-04-28T04:19:43.369Z,1.20
2023-04-28T04:22:13.292Z,1.00
2023-04-28T04:24:45.898Z,1.00
2023-04-28T04:27:15.770Z,1.00
2023-04-28T04:29:45.566Z,1.00
2023-04-28T04:32:15.817Z,1.00
2023-04-28T04:34:45.772Z,1.00
2023-04-28T04:37:15.708Z,1.00
2023-04-28T04:39:48.153Z,1.00
2023-04-28T04:42:25.350Z,1.00
2023-04-28T04:44:55.878Z,1.00
2023-04-28T04:47:25.885Z,1.00
2023-04-28T04:49:56.647Z,1.00
2023-04-28T04:52:26.658Z,1.00
2023-04-28T04:54:59.049Z,1.00
2023-04-28T04:57:28.876Z,1.00
2023-04-28T04:59:58.815Z,1.00
2023-04-28T05:02:28.791Z,1.00
2023-04-28T05:05:07.979Z,1.00
2023-04-28T05:07:42.657Z,1.00
2023-04-28T05:10:15.315Z,1.90
2023-04-28T05:12:47.480Z,2.60
2023-04-28T05:15:18.887Z,4.20
2023-04-28T05:17:48.801Z,5.90
2023-04-28T05:20:18.677Z,7.10
2023-04-28T05:22:48.541Z,6.00
2023-04-28T05:25:21.030Z,6.90
2023-04-28T05:27:51.012Z,7.80
2023-04-28T05:30:21.063Z,7.90
2023-04-28T05:32:50.968Z,7.60
2023-04-28T05:35:20.883Z,6.70
2023-04-28T05:37:50.970Z,6.90
2023-04-28T05:40:23.404Z,6.40
2023-04-28T05:42:53.268Z,6.70
2023-04-28T05:45:23.166Z,5.90
2023-04-28T05:47:53.350Z,6.20
2023-04-28T05:50:23.333Z,8.40
2023-04-28T05:52:53.244Z,9.10
2023-04-28T05:55:25.946Z,9.20
2023-04-28T05:57:56.855Z,11.10
2023-04-28T06:00:26.800Z,12.30
2023-04-28T06:02:57.015Z,14.40
2023-04-28T06:05:27.204Z,15.90
2023-04-28T06:07:57.299Z,17.50
2023-04-28T06:10:29.904Z,19.90
2023-04-28T06:12:59.836Z,23.60
2023-04-28T06:15:30.166Z,25.70
2023-04-28T06:18:00.755Z,27.30
2023-04-28T06:20:30.831Z,29.00
2023-04-28T06:23:00.756Z,31.10
2023-04-28T06:25:33.268Z,31.80
2023-04-28T06:28:03.185Z,33.50
2023-04-28T06:30:33.060Z,35.20
2023-04-28T06:33:03.022Z,35.70
2023-04-28T06:35:35.772Z,36.50
2023-04-28T06:38:06.283Z,37.60
2023-04-28T06:40:40.138Z,38.80
2023-04-28T06:43:10.041Z,38.90
2023-04-28T06:45:40.139Z,39.90
2023-04-28T06:48:10.838Z,39.40
2023-04-28T06:50:42.380Z,40.50
2023-04-28T06:53:13.493Z,40.10
2023-04-28T06:55:46.405Z,41.20
2023-04-28T06:58:16.453Z,41.40
2023-04-28T07:00:46.575Z,41.50
2023-04-28T07:03:16.509Z,42.10
2023-04-28T07:05:46.564Z,43.10
2023-04-28T07:08:17.728Z,42.90
2023-04-28T07:10:50.199Z,43.70
2023-04-28T07:13:20.071Z,44.60
2023-04-28T07:15:50.120Z,43.10
2023-04-28T07:18:20.058Z,44.80
2023-04-28T07:20:49.952Z,45.40
2023-04-28T07:23:19.952Z,46.10
2023-04-28T07:25:52.450Z,47.30
2023-04-28T07:28:22.327Z,48.80
2023-04-28T07:30:52.220Z,48.20
2023-04-28T07:33:22.239Z,50.30
2023-04-28T07:35:52.774Z,51.10
2023-04-28T07:38:23.129Z,51.10
2023-04-28T07:40:55.593Z,51.40
2023-04-28T07:43:25.498Z,51.60
2023-04-28T07:45:56.804Z,52.00
2023-04-28T07:48:27.442Z,52.30
2023-04-28T07:50:57.306Z,51.70
2023-04-28T07:53:27.218Z,51.60
2023-04-28T07:56:00.278Z,52.60
2023-04-28T07:58:30.942Z,54.10
2023-04-28T08:01:00.799Z,54.50
2023-04-28T08:03:30.801Z,55.00
2023-04-28T08:06:01.754Z,55.60
2023-04-28T08:08:33.663Z,57.50
2023-04-28T08:11:06.169Z,56.40
2023-04-28T08:13:36.082Z,58.00
2023-04-28T08:16:06.201Z,59.10
2023-04-28T08:18:36.799Z,60.60
2023-04-28T08:21:07.123Z,62.10
2023-04-28T08:23:39.009Z,62.10
2023-04-28T08:26:11.482Z,63.50
2023-04-28T08:28:41.282Z,63.60
2023-04-28T08:31:11.160Z,63.70
2023-04-28T08:33:44.538Z,65.70
2023-04-28T08:36:15.188Z,66.10
2023-04-28T08:38:45.725Z,67.10
2023-04-28T08:41:19.682Z,67.70
2023-04-28T08:43:49.540Z,68.20
2023-04-28T08:46:21.144Z,68.20
2023-04-28T08:48:52.797Z,68.10
2023-04-28T08:51:31.549Z,68.10
2023-04-28T08:54:24.896Z,68.60
2023-04-28T08:56:58.367Z,68.00
2023-04-28T08:59:28.962Z,67.80
2023-04-28T09:02:00.633Z,68.30
2023-04-28T09:04:31.028Z,68.50
2023-04-28T09:07:00.957Z,68.60
2023-04-28T09:09:35.011Z,67.90
2023-04-28T09:12:10.249Z,66.20
2023-04-28T09:14:41.883Z,66.40
2023-04-28T09:17:16.876Z,67.00
2023-04-28T09:19:46.796Z,68.50
2023-04-28T09:22:26.498Z,68.60
2023-04-28T09:24:57.856Z,67.30
2023-04-28T09:27:32.158Z,62.90
2023-04-28T09:30:02.969Z,66.60
2023-04-28T09:32:33.162Z,65.30
2023-04-28T09:35:04.910Z,66.70
2023-04-28T09:37:35.167Z,65.70
2023-04-28T09:40:10.695Z,66.40
2023-04-28T09:42:45.160Z,68.70
2023-04-28T09:45:15.535Z,69.30
2023-04-28T09:47:48.478Z,65.00
2023-04-28T09:50:20.378Z,65.10
2023-04-28T09:52:59.939Z,65.10
2023-04-28T09:55:33.000Z,65.20
2023-04-28T09:58:08.104Z,65.30
2023-04-28T10:00:39.140Z,59.80
2023-04-28T10:03:10.718Z,61.70
2023-04-28T10:05:41.279Z,61.00
2023-04-28T10:08:12.059Z,61.00
2023-04-28T10:10:43.591Z,58.10
2023-04-28T10:13:16.780Z,53.40
2023-04-28T10:15:48.234Z,53.80
2023-04-28T10:18:19.724Z,55.60
2023-04-28T10:20:52.617Z,56.80
2023-04-28T10:23:49.665Z,54.30
2023-04-28T10:26:22.097Z,55.80
2023-04-28T10:28:55.355Z,55.40
2023-04-28T10:31:25.404Z,57.00
2023-04-28T10:33:55.375Z,55.00
2023-04-28T10:36:50.958Z,54.30
2023-04-28T10:39:21.452Z,50.60
2023-04-28T10:41:51.681Z,52.40
2023-04-28T10:44:48.230Z,52.10
2023-04-28T10:47:18.114Z,51.10
2023-04-28T10:50:12.141Z,45.80
2023-04-28T10:52:51.846Z,48.90
2023-04-28T10:55:36.676Z,48.00
2023-04-28T10:58:33.713Z,46.90
2023-04-28T11:01:32.154Z,44.60
2023-04-28T11:04:04.910Z,45.70
2023-04-28T11:06:36.935Z,46.90
2023-04-28T11:09:49.939Z,42.50
2023-04-28T11:12:19.926Z,38.40
2023-04-28T11:14:49.906Z,38.80
2023-04-28T11:17:42.390Z,37.50
2023-04-28T11:20:15.862Z,40.50
2023-04-28T11:22:46.095Z,39.90
2023-04-28T11:25:15.967Z,42.10
2023-04-28T11:27:45.861Z,38.10
2023-04-28T11:30:25.364Z,40.00
2023-04-28T11:32:58.138Z,42.00
2023-04-28T11:35:28.087Z,38.30
2023-04-28T11:38:05.678Z,39.50
2023-04-28T11:40:35.732Z,39.60
2023-04-28T11:43:06.784Z,43.00
2023-04-28T11:45:37.254Z,45.50
2023-04-28T11:48:24.177Z,48.30
2023-04-28T11:50:54.035Z,51.80
2023-04-28T11:53:24.014Z,50.60
2023-04-28T11:56:08.258Z,52.20
2023-04-28T11:58:38.598Z,50.40
2023-04-28T12:01:11.765Z,51.80
2023-04-28T12:03:51.588Z,50.80
2023-04-28T12:06:21.953Z,52.20
2023-04-28T12:08:52.661Z,51.10
2023-04-28T12:11:22.833Z,53.00
2023-04-28T12:14:10.567Z,53.40
2023-04-28T12:16:46.967Z,54.00
2023-04-28T12:19:20.529Z,53.50
2023-04-28T12:22:04.737Z,53.50
2023-04-28T12:24:36.210Z,53.20
2023-04-28T12:27:25.087Z,46.00
2023-04-28T12:29:56.559Z,45.20
2023-04-28T12:32:42.065Z,41.70
2023-04-28T12:35:14.872Z,43.30
2023-04-28T12:37:47.354Z,48.10
2023-04-28T12:40:17.307Z,52.60
2023-04-28T12:42:47.326Z,54.10
2023-04-28T12:45:17.250Z,58.00
2023-04-28T12:47:47.465Z,58.20
2023-04-28T12:50:20.111Z,62.10
2023-04-28T12:52:49.974Z,64.80
2023-04-28T12:55:20.061Z,65.40
2023-04-28T12:57:50.033Z,66.90
2023-04-28T13:00:23.410Z,67.40
2023-04-28T13:02:53.837Z,66.30
2023-04-28T13:05:26.537Z,66.50
2023-04-28T13:07:57.079Z,64.20
2023-04-28T13:10:27.085Z,58.80
2023-04-28T13:12:56.900Z,57.50
2023-04-28T13:15:27.404Z,54.10
2023-04-28T13:17:57.496Z,39.80
2023-04-28T13:20:30.002Z,41.70
2023-04-28T13:22:59.812Z,45.80
2023-04-28T13:25:29.915Z,39.00
2023-04-28T13:27:59.867Z,41.30
2023-04-28T13:30:29.785Z,37.50
2023-04-28T13:33:00.137Z,35.00
2023-04-28T13:35:32.638Z,36.90
2023-04-28T13:38:04.596Z,31.30
2023-04-28T13:40:36.573Z,33.40
2023-04-28T13:43:06.628Z,34.90
2023-04-28T13:45:36.530Z,35.60
2023-04-28T13:48:06.675Z,40.60
2023-04-28T13:50:39.636Z,42.30
2023-04-28T13:53:11.109Z,39.50
2023-04-28T13:55:41.216Z,39.50
2023-04-28T13:58:11.048Z,36.60
2023-04-28T14:00:41.080Z,36.40
2023-04-28T14:03:11.686Z,39.00
2023-04-28T14:05:49.263Z,38.40
2023-04-28T14:08:20.786Z,36.60
2023-04-28T14:10:51.263Z,36.50
2023-04-28T14:13:21.715Z,40.10
2023-04-28T14:15:59.102Z,38.40
2023-04-28T14:18:29.908Z,36.30
2023-04-28T14:21:03.405Z,32.10
2023-04-28T14:23:33.228Z,33.30
2023-04-28T14:26:03.724Z,30.50
2023-04-28T14:28:33.616Z,34.50
2023-04-28T14:31:09.079Z,38.30
2023-04-28T14:33:39.655Z,35.90
2023-04-28T14:36:12.152Z,36.30
2023-04-28T14:38:41.984Z,34.70
2023-04-28T14:41:11.929Z,36.00
2023-04-28T14:43:41.750Z,35.00
2023-04-28T14:46:11.693Z,35.10
2023-04-28T14:48:41.747Z,38.00
2023-04-28T14:51:14.292Z,35.10
2023-04-28T14:53:44.254Z,41.60
2023-04-28T14:56:18.925Z,43.80
2023-04-28T14:58:50.072Z,44.40
2023-04-28T15:01:20.190Z,46.60
2023-04-28T15:03:50.311Z,45.60
2023-04-28T15:06:22.959Z,44.90
2023-04-28T15:08:53.298Z,44.30
2023-04-28T15:11:26.099Z,45.10
2023-04-28T15:13:56.021Z,46.10
2023-04-28T15:16:26.204Z,47.40
2023-04-28T15:18:56.096Z,50.80
2023-04-28T15:21:28.668Z,51.60
2023-04-28T15:23:59.780Z,52.90
2023-04-28T15:26:36.116Z,54.90
2023-04-28T15:29:06.041Z,55.00
2023-04-28T15:31:36.065Z,54.90
2023-04-28T15:34:06.172Z,54.20
2023-04-28T15:36:40.603Z,52.90
2023-04-28T15:39:10.590Z,48.10
2023-04-28T15:41:40.550Z,51.50
2023-04-28T15:44:10.653Z,51.20
2023-04-28T15:46:40.606Z,51.10
2023-04-28T15:49:11.312Z,49.60
2023-04-28T15:51:44.042Z,51.20
2023-04-28T15:54:13.907Z,53.40
2023-04-28T15:56:44.373Z,53.60
2023-04-28T15:59:16.121Z,52.60
2023-04-28T16:01:46.138Z,54.40
2023-04-28T16:04:16.247Z,55.00
2023-04-28T16:06:50.426Z,56.90
2023-04-28T16:09:20.400Z,59.00
2023-04-28T16:11:50.246Z,61.40
2023-04-28T16:14:20.123Z,62.10
2023-04-28T16:16:50.714Z,61.80
2023-04-28T16:19:21.444Z,61.90
2023-04-28T16:21:54.092Z,62.40
2023-04-28T16:24:24.122Z,65.40
2023-04-28T16:26:54.544Z,66.60
2023-04-28T16:29:24.471Z,69.10
2023-04-28T16:31:54.452Z,71.20
2023-04-28T16:34:24.426Z,72.60
2023-04-28T16:36:56.882Z,74.40
2023-04-28T16:39:27.026Z,75.60
2023-04-28T16:42:01.025Z,76.90
2023-04-28T16:44:31.509Z,76.80
2023-04-28T16:47:01.953Z,78.20
2023-04-28T16:49:31.832Z,78.70
2023-04-28T16:52:05.759Z,79.30
2023-04-28T16:54:36.504Z,79.30
2023-04-28T16:57:06.767Z,81.20
2023-04-28T16:59:36.626Z,81.90
2023-04-28T17:02:06.963Z,81.30
2023-04-28T17:04:37.808Z,79.00
2023-04-28T17:07:10.649Z,71.50
2023-04-28T17:09:40.471Z,71.30
2023-04-28T17:12:10.339Z,70.10
2023-04-28T17:14:41.017Z,69.10
2023-04-28T17:17:10.981Z,69.30
2023-04-28T17:19:42.282Z,65.70
2023-04-28T17:22:14.734Z,65.40
2023-04-28T17:24:45.537Z,64.70
2023-04-28T17:27:15.717Z,63.70
2023-04-28T17:29:52.072Z,63.90
2023-04-28T17:32:22.405Z,64.00
2023-04-28T17:34:52.860Z,65.30
2023-04-28T17:37:25.917Z,65.00
2023-04-28T17:39:55.975Z,65.30
2023-04-28T17:42:26.044Z,66.50
2023-04-28T17:44:56.089Z,66.50
2023-04-28T17:47:26.175Z,66.90
2023-04-28T17:49:56.415Z,67.00
2023-04-28T17:52:28.930Z,68.40
2023-04-28T17:54:59.453Z,69.20
2023-04-28T17:57:29.459Z,70.40
2023-04-28T17:59:59.290Z,69.10
2023-04-28T18:02:29.309Z,70.30
2023-04-28T18:04:59.271Z,70.70
2023-04-28T18:07:32.154Z,70.60
2023-04-28T18:10:02.015Z,70.80
2023-04-28T18:12:31.877Z,70.60
2023-04-28T18:15:02.687Z,71.80
2023-04-28T18:17:33.342Z,71.90
2023-04-28T18:20:04.387Z,72.60
2023-04-28T18:22:37.856Z,73.60
2023-04-28T18:25:08.257Z,74.40
2023-04-28T18:27:38.235Z,75.10
2023-04-28T18:30:09.251Z,76.90
2023-04-28T18:32:39.228Z,76.90
2023-04-28T18:35:09.406Z,77.50
2023-04-28T18:37:42.908Z,77.90
2023-04-28T18:40:13.554Z,78.30
2023-04-28T18:42:43.504Z,78.80
2023-04-28T18:45:15.079Z,79.10
2023-04-28T18:47:45.038Z,79.20
2023-04-28T18:50:14.934Z,79.40
2023-04-28T18:52:47.639Z,79.70
2023-04-28T18:55:17.928Z,80.00
2023-04-28T18:57:48.154Z,80.00
2023-04-28T19:00:18.589Z,80.20
2023-04-28T19:02:48.659Z,80.20
2023-04-28T19:05:18.719Z,80.30
2023-04-28T19:07:51.158Z,80.40
2023-04-28T19:10:21.162Z,80.50
2023-04-28T19:12:51.061Z,80.60
2023-04-28T19:15:21.177Z,80.80
2023-04-28T19:17:51.226Z,80.80
2023-04-28T19:20:22.091Z,81.00
2023-04-28T19:22:54.761Z,80.90
2023-04-28T19:25:25.154Z,81.00
2023-04-28T19:27:55.094Z,80.90
2023-04-28T19:30:25.015Z,81.00
2023-04-28T19:32:55.076Z,81.00
2023-04-28T19:35:25.234Z,80.90
2023-04-28T19:37:57.660Z,81.00
2023-04-28T19:40:28.916Z,81.00
2023-04-28T19:43:00.187Z,80.90
2023-04-28T19:45:30.138Z,80.90
2023-04-28T19:48:00.142Z,81.00
2023-04-28T19:50:30.093Z,80.80
2023-04-28T19:53:02.660Z,80.90
2023-04-28T19:55:32.549Z,81.00
2023-04-28T19:58:02.765Z,81.00
2023-04-28T20:00:32.887Z,80.90
2023-04-28T20:03:03.018Z,81.10
2023-04-28T20:05:33.297Z,81.20
2023-04-28T20:08:05.813Z,81.10
2023-04-28T20:10:35.769Z,81.10
2023-04-28T20:13:07.172Z,81.20
2023-04-28T20:15:37.819Z,81.20
2023-04-28T20:18:07.723Z,81.10
2023-04-28T20:20:37.739Z,81.10
2023-04-28T20:23:10.197Z,81.00
2023-04-28T20:25:41.403Z,81.10
2023-04-28T20:28:11.448Z,80.90
2023-04-28T20:30:42.494Z,81.10
2023-04-28T20:33:13.112Z,81.00
2023-04-28T20:35:42.989Z,80.90
2023-04-28T20:38:15.452Z,80.90
2023-04-28T20:40:45.321Z,80.90
2023-04-28T20:43:15.326Z,81.00
2023-04-28T20:45:45.653Z,80.90
2023-04-28T20:48:15.599Z,81.10
2023-04-28T20:50:45.842Z,81.00
2023-04-28T20:53:18.372Z,80.90
2023-04-28T20:55:48.302Z,81.00
2023-04-28T20:58:18.301Z,81.10
2023-04-28T21:00:48.187Z,81.10
2023-04-28T21:03:18.226Z,81.10
2023-04-28T21:05:48.875Z,81.10
2023-04-28T21:08:21.658Z,81.20
2023-04-28T21:10:51.530Z,81.30
2023-04-28T21:13:21.498Z,81.20
2023-04-28T21:15:51.406Z,81.40
2023-04-28T21:18:21.873Z,81.40
2023-04-28T21:20:51.685Z,81.40
2023-04-28T21:23:24.243Z,81.50
2023-04-28T21:25:54.454Z,81.70
2023-04-28T21:28:24.347Z,81.80
2023-04-28T21:30:54.966Z,82.10
2023-04-28T21:33:25.000Z,82.30
2023-04-28T21:35:54.838Z,82.30
2023-04-28T21:38:27.477Z,82.40
2023-04-28T21:40:57.280Z,82.40
2023-04-28T21:43:27.420Z,82.40
2023-04-28T21:45:57.458Z,82.10
2023-04-28T21:48:27.437Z,81.90
2023-04-28T21:50:58.017Z,81.50
2023-04-28T21:53:30.459Z,81.40
2023-04-28T21:56:00.400Z,81.40
2023-04-28T21:58:30.425Z,81.30
2023-04-28T22:01:00.368Z,81.40
2023-04-28T22:03:30.659Z,81.30
2023-04-28T22:06:00.678Z,81.10
2023-04-28T22:08:33.804Z,81.10
2023-04-28T22:11:04.217Z,80.90
2023-04-28T22:13:34.190Z,81.10
2023-04-28T22:16:04.591Z,80.80
2023-04-28T22:18:34.665Z,80.70
2023-04-28T22:21:05.406Z,80.70
2023-04-28T22:23:37.877Z,80.60
2023-04-28T22:26:07.746Z,80.60
2023-04-28T22:28:37.656Z,80.30
2023-04-28T22:31:07.572Z,80.10
2023-04-28T22:33:38.789Z,79.80
2023-04-28T22:36:10.060Z,80.10
2023-04-28T22:38:42.610Z,79.80
2023-04-28T22:41:12.454Z,79.50
2023-04-28T22:43:42.907Z,79.30
2023-04-28T22:46:12.830Z,79.00
2023-04-28T22:48:42.752Z,78.90
2023-04-28T22:51:12.677Z,79.60
2023-04-28T22:53:45.289Z,78.90
2023-04-28T22:56:15.238Z,79.10
2023-04-28T22:58:45.334Z,79.60
2023-04-28T23:01:15.247Z,79.40
2023-04-28T23:03:45.349Z,79.50
2023-04-28T23:06:15.271Z,79.50
2023-04-28T23:08:47.744Z,79.40
2023-04-28T23:11:17.576Z,79.70
2023-04-28T23:13:47.439Z,79.30
2023-04-28T23:16:17.287Z,79.30
2023-04-28T23:18:47.203Z,79.60
2023-04-28T23:21:17.068Z,79.60
2023-04-28T23:23:49.516Z,79.30
2023-04-28T23:26:20.208Z,79.70
2023-04-28T23:28:50.527Z,79.40
2023-04-28T23:31:20.435Z,78.70
2023-04-28T23:33:50.361Z,78.50
2023-04-28T23:36:20.320Z,78.20
2023-04-28T23:38:52.999Z,77.90
2023-04-28T23:41:22.887Z,77.50
2023-04-28T23:43:52.736Z,76.50
2023-04-28T23:46:22.841Z,75.60
2023-04-28T23:48:52.762Z,75.20
2023-04-28T23:51:22.632Z,74.80
2023-04-28T23:53:55.193Z,74.50
2023-04-28T23:56:25.477Z,73.70
2023-04-28T23:58:56.167Z,72.90
